Grizzly Air Cargo 5140


CYZF
Yellowknife Airport
Yellowknife, CA
PANC
Ted Stevens Anchorage International Airport
Anchorage, US

Route Details

Aircraft Information
Primary: Boeing 727-200F
Backup: Boeing 737-800BCF
Route Data
Distance: 1002nm
Sched. Duration: 2h 50m
Avg. Duration: 2h 33m (-16m)
Times Flown: 9
Recm'd Route: YZF268095 63N20 YWY NCA17 ORT J124 GKN PTERS3
Planned Altitude: 36,000ft
Origin Wx: CYZF 231327Z 07007KT 2SM -SN OVC026 M22/M25 A2988 RMK SC8 SLP148
Dest. Wx: PANC 231253Z 36013KT 10SM OVC039 M11/M16 A2996 RMK AO2 SLP148 T11061161 $
Notes:

Financial History
Total Freight: 303,333lbs
Average Load: 33,704lbs/flt
Fuel Used: 182,242lbs
Avg. Fuel Used: 20,249lbs/flt
Fuel Expense: $52,850
Avg. Fuel Expense: $5,872
Avg. Fuel Cost: $0.29/lbs
Total Gross Income: $837,199
Pilot Pay: $2,061
Total Expenses: $90,886
Total Revenue: $687,983
Average Revenue: $93,022.12